首页
METAR-TAF:

METAR-TAF

机场 :

基韋斯特, 佛罗里达州, 美国

纬度: 24-33-13N, 经度: 081-45-13W, 海拔: 1米

当前天气观测

该预报发布于46分钟前的21:53 UTC
风速6节,风向南转南东
温度 31°C
湿度 63%
气压 1014 hPa
能見度: 16.1公里
天空无云

METAR: KEYW 262153Z 15006KT 10SM CLR 31/23 A2994 RMK AO2 SLP145 T03060228

时间: 18:39 (22:39 UTC)

预报

该预报发布于5小时和8分钟前的17:31 UTC
预报有效从26日的 18点(UTC)到 27日的 18点(UTC)
风速7节,风向东南
能見度: 10公里
少量云层高于2000英尺

TAF: KEYW 261731Z 2618/2718 14007KT P6SM FEW020

超过4000个机场的气象观测和天气预报(METAR&TAF报告)。

可查询的气象台以黄色和红色小点在地图上表示。

将鼠标移到小点上方,可查看气象台名称。

然后点击查看天气观测和预报。

如需切换地图:点击带黑十字的绿色按钮放大地图;点击带横线的绿色按钮缩小地图;或者点击绿色箭头查看邻近地区的地图。


METAR-TAF: